Strona główna
METAR-TAF:

METAR-TAF

Lotnisko :

Chautauqua County/Dunkirk Airport

Dunkirk, Nowy Jork, Stany Zjednoczone

Szerokość geograficzna: 42-29-35N, Długość geograficzna: 079-16-33W, wysokość: 211 m

Aktualna obserwacja pogody

Raport powstał 7 minut temu, godzina 00:03 UTC
Wiatr 8 kt od północny zachód
Temperatura -1°C
Wilgotność 100%
Ciśnienie 1008 hPa
Widzialność: 2.4 km
Zachmurzenie całkowite na wysokości 400 ft
słaby śnieg, zamglenie

METAR: KDKK 270003Z AUTO 31008KT 1 1/2SM -SN BR OVC004 M01/M01 A2977 RMK AO2 CIG 004V009 P0000 T10061011

czas: 19:10 (00:10 UTC)


TAF: brakujący

Obserwacja i prognoza pogody dla ponad 4000 lotnisk (raport METAR i TAF).

Dostępne stacje oznaczono żółtymi i czerwonymi punktami na mapie.

Najedź kursorem aby zobaczyć nazwę stacji.

Kliknij aby zobaczyć obserwacje i prognozy pogody.

Aby zmienić mapę: kliknij na zielony przycisk z czarnym krzyżykiem, aby powiększyć; na zielony przycisk z myślnikiem, aby pomniejszyć; na zielone strzałki, aby przejść do map sąsiednich.


METAR-TAF: